Time;durP1;ratioP1;P1;durP2;ratioP2;P2;SDS_P1;SDS_P2;PMS_P1;PMS_P2;Temp;Humidity;BMP_temperature;BMP_pressure;BME280_temperature;BME280_humidity;BME280_pressure;Samples;Min_cycle;Max_cycle;Signal;HPM_P1;HPM_P2
2021/07/16 00:00:11;;;;;;;21.67;13.53;;;;;;;18.57;96.76;100939.17;125144;1092;64477;-81
2021/07/16 00:02:40;;;;;;;16.37;9.07;;;;;;;18.54;97.49;100947.69;125165;1093;64278;-82
2021/07/16 00:05:09;;;;;;;22.00;10.70;;;;;;;18.51;97.62;100953.52;125340;1093;64352;-82
2021/07/16 00:07:38;;;;;;;18.30;9.83;;;;;;;18.48;97.82;100949.39;125122;1093;64304;-82
2021/07/16 00:10:08;;;;;;;19.13;11.57;;;;;;;18.47;97.46;100946.94;124970;1093;64384;-81
2021/07/16 00:12:36;;;;;;;23.70;10.97;;;;;;;18.45;97.72;100949.03;124881;1092;64290;-82
2021/07/16 00:15:05;;;;;;;24.50;13.07;;;;;;;18.44;98.02;100952.73;124962;1093;64191;-82
2021/07/16 00:17:33;;;;;;;19.90;10.67;;;;;;;18.44;97.86;100953.55;125368;1092;64326;-81
2021/07/16 00:20:00;;;;;;;23.07;10.87;;;;;;;18.42;98.18;100944.08;124904;1093;64291;-82
2021/07/16 00:22:27;;;;;;;18.20;10.15;;;;;;;18.39;98.21;100950.72;124882;1092;64744;-81
2021/07/16 00:24:54;;;;;;;22.20;10.97;;;;;;;18.37;98.83;100951.99;124871;1092;64810;-82
2021/07/16 00:27:22;;;;;;;18.27;9.07;;;;;;;18.32;99.20;100952.66;124859;1093;64245;-81
2021/07/16 00:29:49;;;;;;;17.60;9.90;;;;;;;18.29;99.31;100956.58;124821;1092;64215;-81
2021/07/16 00:32:16;;;;;;;20.40;10.93;;;;;;;18.25;100.00;100960.73;124861;1093;64246;-81
2021/07/16 00:34:44;;;;;;;17.27;10.40;;;;;;;18.23;100.00;100954.77;124874;1091;64885;-81
2021/07/16 00:37:11;;;;;;;21.17;11.50;;;;;;;18.23;99.22;100957.45;124841;1093;64313;-81
2021/07/16 00:39:38;;;;;;;18.27;10.80;;;;;;;18.25;99.55;100955.37;124899;1093;64390;-83
2021/07/16 00:42:06;;;;;;;21.50;11.90;;;;;;;18.24;100.00;100959.11;124927;1093;64482;-81
2021/07/16 00:44:35;;;;;;;18.87;10.70;;;;;;;18.24;99.62;100964.48;124869;1093;64314;-81
2021/07/16 00:47:05;;;;;;;18.50;9.00;;;;;;;18.23;99.85;100968.19;125185;1092;64240;-80
2021/07/16 00:49:33;;;;;;;15.30;8.45;;;;;;;18.23;99.57;100970.06;125227;1092;64211;-81
2021/07/16 00:52:00;;;;;;;13.07;8.13;;;;;;;18.23;100.00;100967.38;124900;1093;64400;-81
2021/07/16 00:54:28;;;;;;;18.63;10.07;;;;;;;18.22;99.57;100969.25;124950;1093;64891;-81
2021/07/16 00:56:55;;;;;;;25.50;11.95;;;;;;;18.21;100.00;100967.62;124819;1093;64210;-82
2021/07/16 00:59:25;;;;;;;15.90;8.03;;;;;;;18.19;100.00;100956.27;124828;1092;64432;-82
2021/07/16 01:01:58;;;;;;;20.33;11.33;;;;;;;18.16;100.00;100964.75;125077;1092;64301;-81
2021/07/16 01:04:26;;;;;;;21.20;10.13;;;;;;;18.12;100.00;100972.41;124881;1093;64261;-81
2021/07/16 01:06:54;;;;;;;14.80;8.75;;;;;;;18.10;100.00;100961.06;124842;1093;64224;-81
2021/07/16 01:09:21;;;;;;;17.03;10.13;;;;;;;18.07;100.00;100968.75;124948;1093;64294;-81
2021/07/16 01:11:49;;;;;;;16.43;8.80;;;;;;;18.06;100.00;100959.04;124797;1093;64326;-82
2021/07/16 01:14:17;;;;;;;16.77;8.57;;;;;;;18.05;100.00;100970.83;124799;1092;64208;-82
2021/07/16 01:16:44;;;;;;;13.43;7.10;;;;;;;18.03;100.00;100972.91;124870;1092;64368;-81
2021/07/16 01:19:20;;;;;;;16.15;10.60;;;;;;;18.03;100.00;100972.91;124856;1092;64405;-80
2021/07/16 01:21:50;;;;;;;22.80;9.60;;;;;;;18.03;100.00;100970.23;124939;1092;64291;-80
2021/07/16 01:24:18;;;;;;;20.20;9.33;;;;;;;18.01;100.00;100969.63;125120;1093;64339;-80
2021/07/16 01:26:46;;;;;;;24.00;11.10;;;;;;;18.01;100.00;100969.63;124876;1091;64240;-81
2021/07/16 01:29:13;;;;;;;17.70;9.93;;;;;;;18.01;100.00;100964.25;124857;1093;64291;-79
2021/07/16 01:31:40;;;;;;;20.60;8.50;;;;;;;17.99;100.00;100969.02;125103;1092;64460;-81
2021/07/16 01:34:08;;;;;;;16.50;10.90;;;;;;;17.98;100.00;100972.72;124899;1092;64326;-82
2021/07/16 01:36:36;;;;;;;21.03;10.03;;;;;;;18.00;100.00;100978.70;124983;1093;64285;-81
2021/07/16 01:39:04;;;;;;;21.40;10.70;;;;;;;17.97;100.00;100965.72;124905;1092;64395;-81
2021/07/16 01:41:31;;;;;;;26.45;11.60;;;;;;;17.96;100.00;100962.22;124976;1092;64211;-81
2021/07/16 01:43:58;;;;;;;16.63;9.60;;;;;;;17.95;100.00;100965.12;124783;1093;64828;-81
2021/07/16 01:46:25;;;;;;;18.60;9.47;;;;;;;17.93;100.00;100978.74;124880;1092;64320;-81
2021/07/16 01:48:52;;;;;;;22.00;11.03;;;;;;;17.92;100.00;100975.25;124807;1093;64406;-81
2021/07/16 01:51:20;;;;;;;26.20;12.70;;;;;;;17.90;100.00;100974.64;125261;1093;64294;-82
2021/07/16 01:53:47;;;;;;;17.33;9.17;;;;;;;17.91;100.00;100981.67;125341;1093;64361;-83
2021/07/16 01:56:17;;;;;;;19.97;9.73;;;;;;;17.91;100.00;100987.03;125190;1093;64358;-82
2021/07/16 01:58:44;;;;;;;31.15;11.60;;;;;;;17.91;100.00;100984.35;125026;1092;64297;-81
2021/07/16 02:01:14;;;;;;;25.05;10.55;;;;;;;17.91;100.00;100987.03;124938;1092;64304;-82
2021/07/16 02:03:46;;;;;;;21.17;10.70;;;;;;;17.92;100.00;100994.03;125191;1093;64354;-83
2021/07/16 02:06:14;;;;;;;17.43;9.00;;;;;;;17.92;100.00;100994.03;125017;1093;64253;-83
2021/07/16 02:08:41;;;;;;;16.97;7.17;;;;;;;17.92;100.00;100999.41;124911;1091;64300;-82
2021/07/16 02:11:08;;;;;;;18.17;9.33;;;;;;;17.90;100.00;101001.48;125029;1091;64329;-82
2021/07/16 02:13:35;;;;;;;20.50;8.10;;;;;;;17.86;100.00;101000.27;125116;1093;64211;-81
2021/07/16 02:16:03;;;;;;;24.83;8.70;;;;;;;17.84;100.00;101004.20;124849;1093;64260;-82
2021/07/16 02:18:33;;;;;;;16.00;9.27;;;;;;;17.78;100.00;101003.16;125410;1093;63397;-83
2021/07/16 02:21:00;;;;;;;19.95;8.25;;;;;;;17.76;100.00;101005.23;125096;1092;64351;-84
2021/07/16 02:23:30;;;;;;;19.63;9.90;;;;;;;17.70;100.00;100995.36;124855;1093;64400;-82
2021/07/16 02:25:58;;;;;;;19.05;8.45;;;;;;;17.65;100.00;100997.88;124891;1092;65387;-82
2021/07/16 02:28:31;;;;;;;19.27;8.70;;;;;;;17.61;100.00;101007.39;124907;1092;64318;-81
2021/07/16 02:31:07;;;;;;;16.37;8.10;;;;;;;17.58;100.00;100997.09;124961;1092;64371;-81
2021/07/16 02:33:36;;;;;;;20.83;9.03;;;;;;;17.53;100.00;100995.88;124840;1092;64445;-81
2021/07/16 02:36:05;;;;;;;19.57;8.77;;;;;;;17.51;100.00;100997.10;124983;1093;64451;-84
2021/07/16 02:38:34;;;;;;;22.17;9.03;;;;;;;17.52;100.00;101004.13;125026;1092;64602;-83
2021/07/16 02:41:01;;;;;;;10.27;5.57;;;;;;;17.53;100.00;101011.13;124864;1093;64259;-81
2021/07/16 02:43:28;;;;;;;21.47;9.70;;;;;;;17.52;100.00;101007.63;124898;1093;64349;-83
2021/07/16 02:45:55;;;;;;;21.13;9.60;;;;;;;17.53;100.00;101011.97;124826;1093;64268;-81
2021/07/16 02:48:22;;;;;;;17.10;7.63;;;;;;;17.55;100.00;101005.55;124897;1093;64318;-83
2021/07/16 02:50:50;;;;;;;16.00;7.13;;;;;;;17.53;100.00;101017.34;124870;1092;64250;-82
2021/07/16 02:53:20;;;;;;;18.47;7.90;;;;;;;17.53;100.00;101024.53;124826;1093;64435;-81
2021/07/16 02:55:49;;;;;;;13.63;6.77;;;;;;;17.48;100.00;101022.50;125049;1093;64212;-82
2021/07/16 02:58:16;;;;;;;15.33;6.77;;;;;;;17.46;100.00;101027.25;125270;1092;64879;-82
2021/07/16 03:00:43;;;;;;;16.43;7.93;;;;;;;17.41;100.00;101018.21;124891;1092;64186;-84
2021/07/16 03:03:10;;;;;;;16.65;7.50;;;;;;;17.37;100.00;101014.30;124852;1093;64214;-82
2021/07/16 03:05:39;;;;;;;21.10;7.80;;;;;;;17.35;100.00;101019.88;124875;1093;64304;-81
2021/07/16 03:08:09;;;;;;;13.90;7.50;;;;;;;17.31;100.00;101021.33;124833;1093;64278;-81
2021/07/16 03:10:39;;;;;;;21.90;8.10;;;;;;;17.29;100.00;101018.03;124952;1093;64294;-82
2021/07/16 03:13:09;;;;;;;16.67;7.33;;;;;;;17.26;100.00;101021.97;124964;1093;64324;-82
2021/07/16 03:15:37;;;;;;;24.33;8.37;;;;;;;17.24;100.00;101023.22;125011;1093;64288;-81
2021/07/16 03:18:05;;;;;;;21.23;7.17;;;;;;;17.23;100.00;101032.28;124980;1092;64337;-82
2021/07/16 03:20:37;;;;;;;23.77;8.20;;;;;;;17.22;100.00;101025.29;125038;1092;64609;-81
2021/07/16 03:23:05;;;;;;;14.70;7.47;;;;;;;17.19;100.00;101031.05;124834;1093;64455;-82
2021/07/16 03:25:35;;;;;;;16.75;6.80;;;;;;;17.19;100.00;101037.27;124841;1092;64242;-82
2021/07/16 03:28:05;;;;;;;27.73;9.03;;;;;;;17.19;100.00;101031.90;125054;1093;64400;-82
2021/07/16 03:30:33;;;;;;;20.25;8.10;;;;;;;17.19;100.00;101031.90;125357;1093;64326;-81
2021/07/16 03:33:01;;;;;;;19.93;9.53;;;;;;;17.17;100.00;101039.33;125036;1093;64322;-82
2021/07/16 03:35:28;;;;;;;30.50;9.60;;;;;;;17.16;100.00;101040.34;125348;1093;64288;-82
2021/07/16 03:37:56;;;;;;;21.37;8.07;;;;;;;17.17;100.00;101038.48;124825;1093;64786;-82
2021/07/16 03:40:29;;;;;;;20.63;7.90;;;;;;;17.17;100.00;101031.28;124776;1093;64364;-82
2021/07/16 03:42:58;;;;;;;22.20;6.95;;;;;;;17.18;100.00;101037.46;125062;1093;64243;-82
2021/07/16 03:45:26;;;;;;;21.57;8.53;;;;;;;17.17;100.00;101041.16;125569;1093;64297;-84
2021/07/16 03:47:53;;;;;;;27.07;8.53;;;;;;;17.17;100.00;101043.84;125555;1092;64285;-85
2021/07/16 03:50:21;;;;;;;20.73;7.93;;;;;;;17.17;100.00;101043.84;124757;1093;64227;-84
2021/07/16 03:52:51;;;;;;;19.27;8.00;;;;;;;17.13;100.00;101035.42;124869;1093;64295;-84
2021/07/16 03:55:18;;;;;;;18.10;7.50;;;;;;;17.12;100.00;101034.57;125009;1093;64288;-82
2021/07/16 03:57:47;;;;;;;20.87;8.53;;;;;;;17.12;100.00;101041.80;124841;1093;64693;-83
2021/07/16 04:00:19;;;;;;;20.73;7.63;;;;;;;17.09;100.00;101043.05;124824;1093;64312;-85
2021/07/16 04:02:46;;;;;;;23.77;9.43;;;;;;;17.09;100.00;101043.05;124948;1093;64360;-82
2021/07/16 04:05:13;;;;;;;24.77;8.83;;;;;;;17.10;100.00;101031.27;124826;1093;64307;-83
2021/07/16 04:07:49;;;;;;;21.23;9.50;;;;;;;17.10;100.00;101043.86;124895;1093;64248;-82
2021/07/16 04:10:20;;;;;;;17.10;7.97;;;;;;;17.11;100.00;101029.44;124837;1093;64348;-82
2021/07/16 04:12:55;;;;;;;21.27;8.63;;;;;;;17.11;100.00;101035.63;125050;1093;64307;-82
2021/07/16 04:15:26;;;;;;;27.20;11.10;;;;;;;17.14;100.00;101033.55;124865;1093;64294;-82
2021/07/16 04:17:54;;;;;;;20.17;8.17;;;;;;;17.12;100.00;101031.89;124838;1093;65605;-84
2021/07/16 04:20:22;;;;;;;18.50;7.10;;;;;;;17.14;100.00;101036.23;124868;1093;64348;-86
2021/07/16 04:22:49;;;;;;;23.67;7.73;;;;;;;17.16;100.00;101028.81;124821;1093;64294;-82
2021/07/16 04:25:18;;;;;;;21.57;8.13;;;;;;;17.14;100.00;101036.23;124853;1093;64412;-82
2021/07/16 04:27:48;;;;;;;27.37;7.80;;;;;;;17.12;100.00;101031.08;125096;1093;64291;-84
2021/07/16 04:30:17;;;;;;;20.47;7.03;;;;;;;17.12;99.81;101031.08;125315;1092;64321;-84
2021/07/16 04:32:45;;;;;;;20.77;7.60;;;;;;;17.15;99.64;101032.50;126021;1092;64259;-84
2021/07/16 04:35:14;;;;;;;24.53;9.53;;;;;;;17.17;99.57;101039.33;125332;1092;64304;-83
2021/07/16 04:37:43;;;;;;;15.20;6.25;;;;;;;17.20;99.53;101038.08;124902;1093;64333;-83
2021/07/16 04:40:15;;;;;;;26.93;8.57;;;;;;;17.24;99.36;101044.67;124916;1092;64291;-83
2021/07/16 04:42:43;;;;;;;14.10;6.20;;;;;;;17.28;99.14;101045.90;125186;1093;64256;-82
2021/07/16 04:45:12;;;;;;;17.67;7.10;;;;;;;17.30;98.49;101051.88;125038;1092;64374;-83
2021/07/16 04:47:41;;;;;;;21.10;7.63;;;;;;;17.31;98.49;101045.46;124996;1093;63066;-82
2021/07/16 04:50:09;;;;;;;24.27;7.87;;;;;;;17.32;98.28;101053.30;125133;1093;64349;-84
2021/07/16 04:52:40;;;;;;;20.40;7.73;;;;;;;17.35;97.74;101046.69;124774;1092;64307;-73
2021/07/16 04:55:09;;;;;;;19.60;7.55;;;;;;;17.37;97.59;101051.85;125063;1093;65486;-74
2021/07/16 04:57:36;;;;;;;27.45;8.20;;;;;;;17.39;97.39;101053.28;124997;1093;64243;-74
2021/07/16 05:00:06;;;;;;;14.97;6.10;;;;;;;17.43;97.26;101059.05;124664;1093;64877;-74
2021/07/16 05:02:33;;;;;;;16.73;6.63;;;;;;;17.44;96.89;101064.19;124663;1093;64359;-73
2021/07/16 05:05:02;;;;;;;18.13;6.70;;;;;;;17.48;96.66;101072.64;124683;1092;64230;-75
2021/07/16 05:07:29;;;;;;;19.97;7.03;;;;;;;17.50;96.65;101074.08;124753;1093;64320;-76
2021/07/16 05:09:56;;;;;;;11.47;5.77;;;;;;;17.55;96.25;101077.98;124677;1093;64355;-75
2021/07/16 05:12:23;;;;;;;16.57;5.77;;;;;;;17.58;96.24;101062.30;124688;1093;64293;-74
2021/07/16 05:14:50;;;;;;;20.10;5.45;;;;;;;17.62;95.78;101068.88;124698;1092;64345;-74
2021/07/16 05:17:17;;;;;;;15.75;6.80;;;;;;;17.61;95.01;101071.77;124639;1093;64288;-73
2021/07/16 05:19:44;;;;;;;28.05;7.85;;;;;;;17.53;94.64;101081.71;124722;1093;64256;-74
2021/07/16 05:22:11;;;;;;;15.35;5.00;;;;;;;17.49;94.94;101083.17;124682;1093;64707;-73
2021/07/16 05:24:38;;;;;;;20.73;7.77;;;;;;;17.45;95.11;101071.21;124692;1093;65340;-73
2021/07/16 05:27:06;;;;;;;23.33;7.07;;;;;;;17.42;95.24;101073.48;124593;1093;64371;-74
2021/07/16 05:29:33;;;;;;;24.13;7.00;;;;;;;17.38;94.89;101083.80;124698;1093;64296;-73
2021/07/16 05:32:01;;;;;;;18.13;6.10;;;;;;;17.36;95.00;101074.33;124665;1093;64294;-74
2021/07/16 05:34:28;;;;;;;24.80;7.67;;;;;;;17.35;95.18;101083.41;124868;1092;64319;-74
2021/07/16 05:36:55;;;;;;;14.53;5.27;;;;;;;17.32;95.16;101077.44;124656;1092;64352;-75
2021/07/16 05:39:22;;;;;;;26.03;7.93;;;;;;;17.32;95.05;101084.67;124649;1093;64400;-73
2021/07/16 05:41:50;;;;;;;21.40;7.00;;;;;;;17.33;94.97;101086.30;124705;1092;64252;-73
2021/07/16 05:44:17;;;;;;;15.33;5.27;;;;;;;17.33;95.10;101080.94;124673;1093;64370;-73
2021/07/16 05:46:44;;;;;;;22.67;6.70;;;;;;;17.32;95.24;101090.03;124688;1093;64320;-74
2021/07/16 05:49:11;;;;;;;26.23;7.63;;;;;;;17.31;95.05;101094.55;124625;1093;65482;-73
2021/07/16 05:51:38;;;;;;;16.43;5.83;;;;;;;17.29;95.37;101096.61;124642;1093;64243;-74
2021/07/16 05:54:05;;;;;;;23.50;6.83;;;;;;;17.29;95.13;101095.80;124710;1093;64432;-73
2021/07/16 05:56:32;;;;;;;15.23;5.13;;;;;;;17.27;95.37;101097.86;124682;1092;64322;-74
2021/07/16 05:59:00;;;;;;;29.40;6.97;;;;;;;17.25;95.40;101106.10;124719;1093;64302;-76
2021/07/16 06:01:27;;;;;;;19.00;5.73;;;;;;;17.26;95.39;101102.41;124628;1093;64250;-76
2021/07/16 06:03:54;;;;;;;18.03;6.63;;;;;;;17.29;95.09;101095.80;124706;1092;64454;-80
2021/07/16 06:06:21;;;;;;;21.80;6.03;;;;;;;17.37;95.27;101103.63;124756;1092;64307;-82
2021/07/16 06:08:48;;;;;;;17.17;5.13;;;;;;;17.50;94.95;101106.26;124846;1093;64271;-80
2021/07/16 06:11:15;;;;;;;16.83;5.07;;;;;;;17.56;93.10;101091.19;124863;1093;64304;-80
2021/07/16 06:13:42;;;;;;;14.27;5.30;;;;;;;17.60;92.90;101097.78;124973;1093;64287;-80
2021/07/16 06:16:09;;;;;;;18.20;5.60;;;;;;;17.64;92.27;101099.01;124845;1093;64371;-80
2021/07/16 06:18:36;;;;;;;14.75;4.30;;;;;;;17.68;92.33;101104.75;125451;1093;64361;-81
2021/07/16 06:21:06;;;;;;;18.87;5.60;;;;;;;17.70;92.10;101100.84;124904;1092;64314;-76
2021/07/16 06:23:33;;;;;;;22.03;6.77;;;;;;;17.72;91.58;101108.66;124643;1093;64330;-76
2021/07/16 06:26:00;;;;;;;19.33;7.40;;;;;;;17.74;91.28;101109.27;124684;1093;64313;-76
2021/07/16 06:28:28;;;;;;;13.03;6.10;;;;;;;17.77;91.27;101114.23;124577;1093;64439;-76
2021/07/16 06:30:55;;;;;;;19.23;5.37;;;;;;;17.78;91.10;101115.87;124682;1093;64307;-76
2021/07/16 06:33:22;;;;;;;12.73;5.10;;;;;;;17.81;91.31;101122.66;124643;1093;64339;-75
2021/07/16 06:35:49;;;;;;;21.70;5.83;;;;;;;17.81;91.03;101126.19;124577;1091;64291;-76
2021/07/16 06:38:16;;;;;;;18.37;6.43;;;;;;;17.80;90.86;101121.84;124605;1092;64320;-75
2021/07/16 06:40:43;;;;;;;15.67;5.93;;;;;;;17.75;90.93;101132.41;124599;1092;64435;-76
2021/07/16 06:43:10;;;;;;;18.73;6.23;;;;;;;17.74;90.94;101125.38;124682;1092;64343;-75
2021/07/16 06:45:37;;;;;;;23.83;7.07;;;;;;;17.70;91.19;101124.15;124687;1093;64291;-74
2021/07/16 06:48:06;;;;;;;22.80;8.70;;;;;;;17.67;91.43;101122.72;124675;1093;64281;-76
2021/07/16 06:50:33;;;;;;;21.33;6.87;;;;;;;17.72;91.51;101130.97;124679;1093;64265;-75
2021/07/16 06:53:00;;;;;;;18.97;7.80;;;;;;;17.73;91.22;101127.24;124616;1093;64247;-76
2021/07/16 06:55:28;;;;;;;15.63;7.17;;;;;;;17.69;90.83;101128.70;124644;1093;64751;-75
2021/07/16 06:57:55;;;;;;;19.57;7.00;;;;;;;17.67;91.01;101140.68;124676;1093;64394;-76
2021/07/16 07:00:22;;;;;;;18.50;6.80;;;;;;;17.67;91.09;101149.55;124575;1093;65025;-76
2021/07/16 07:02:49;;;;;;;21.60;6.43;;;;;;;17.71;91.09;101144.59;124746;1093;64284;-75
2021/07/16 07:05:16;;;;;;;20.30;7.77;;;;;;;17.76;91.34;101150.14;124662;1093;64403;-77
2021/07/16 07:07:43;;;;;;;16.07;5.70;;;;;;;17.77;91.01;101162.53;124680;1093;65433;-76
2021/07/16 07:10:11;;;;;;;22.30;7.05;;;;;;;17.73;90.58;101156.76;124672;1093;65426;-75
2021/07/16 07:12:39;;;;;;;19.63;8.27;;;;;;;17.70;90.35;101162.56;124670;1092;64291;-75
2021/07/16 07:15:06;;;;;;;19.83;6.60;;;;;;;17.71;91.08;101164.19;124663;1093;64236;-74
2021/07/16 07:17:42;;;;;;;23.30;6.87;;;;;;;17.73;90.85;101164.80;124708;1093;64371;-75
2021/07/16 07:20:11;;;;;;;21.60;6.50;;;;;;;17.79;90.54;101170.39;124897;1092;64237;-76
2021/07/16 07:22:38;;;;;;;22.17;7.07;;;;;;;17.83;90.37;101176.98;124685;1092;64291;-75
2021/07/16 07:25:06;;;;;;;16.87;6.80;;;;;;;17.90;89.89;101180.48;124651;1093;64313;-76
2021/07/16 07:27:33;;;;;;;16.17;6.73;;;;;;;17.89;89.16;101182.36;124661;1093;64264;-75
2021/07/16 07:30:01;;;;;;;18.47;6.87;;;;;;;17.86;89.19;101190.81;124787;1093;64287;-75
2021/07/16 07:32:28;;;;;;;16.10;7.20;;;;;;;17.84;89.09;101194.75;124661;1093;64342;-76
2021/07/16 07:34:55;;;;;;;22.47;7.20;;;;;;;17.82;89.26;101194.95;124538;1093;64316;-75
2021/07/16 07:37:22;;;;;;;13.47;5.40;;;;;;;17.79;89.24;101197.22;124672;1093;64217;-76
2021/07/16 07:39:49;;;;;;;21.03;7.73;;;;;;;17.75;89.17;101191.44;124626;1093;64294;-76
2021/07/16 07:42:21;;;;;;;14.53;5.43;;;;;;;17.74;89.50;101197.83;124540;1092;64419;-78
2021/07/16 07:44:49;;;;;;;16.50;7.33;;;;;;;17.73;89.42;101188.95;124663;1093;64288;-76
2021/07/16 07:47:16;;;;;;;21.30;6.20;;;;;;;17.77;89.78;101189.38;124742;1093;64377;-76
2021/07/16 07:49:43;;;;;;;16.80;6.03;;;;;;;17.83;89.50;101185.03;124661;1093;64736;-76
2021/07/16 07:52:10;;;;;;;17.60;6.13;;;;;;;17.90;89.33;101192.04;124653;1092;64223;-75
2021/07/16 07:54:37;;;;;;;12.83;5.70;;;;;;;17.95;88.89;101195.95;124606;1093;64326;-78
2021/07/16 07:57:05;;;;;;;18.10;6.60;;;;;;;18.01;88.58;101197.80;124666;1092;64215;-76
2021/07/16 07:59:32;;;;;;;18.60;5.90;;;;;;;18.11;88.26;101192.80;124737;1093;64214;-75
2021/07/16 08:01:59;;;;;;;21.87;6.23;;;;;;;18.16;87.42;101200.22;124708;1093;64294;-75
2021/07/16 08:04:28;;;;;;;14.37;5.97;;;;;;;18.21;87.24;101201.23;124681;1093;64291;-75
2021/07/16 08:06:54;;;;;;;20.37;7.40;;;;;;;18.27;87.32;101202.23;124596;1093;64384;-75
2021/07/16 08:09:22;;;;;;;20.17;7.27;;;;;;;18.30;86.85;101202.63;124690;1093;64291;-75
2021/07/16 08:11:49;;;;;;;22.57;8.10;;;;;;;18.32;86.23;101199.74;124637;1093;64297;-74
2021/07/16 08:14:16;;;;;;;21.13;6.77;;;;;;;18.31;86.32;101206.95;124746;1093;64320;-75
2021/07/16 08:16:46;;;;;;;23.13;7.83;;;;;;;18.28;86.15;101211.95;124698;1093;64307;-75
2021/07/16 08:19:17;;;;;;;21.65;7.60;;;;;;;18.25;85.83;101213.17;124680;1093;64544;-76
2021/07/16 08:21:49;;;;;;;17.53;6.37;;;;;;;18.25;86.53;101215.05;124633;1093;64364;-76
2021/07/16 08:24:16;;;;;;;21.17;7.63;;;;;;;18.33;85.88;101215.63;124765;1093;64291;-74
2021/07/16 08:26:43;;;;;;;20.17;7.70;;;;;;;18.42;85.88;101212.69;124574;1093;64403;-77
2021/07/16 08:29:10;;;;;;;20.53;7.80;;;;;;;18.46;85.16;101214.73;124757;1093;64327;-75
2021/07/16 08:31:38;;;;;;;19.17;8.40;;;;;;;18.54;85.02;101221.73;124596;1093;64397;-79
2021/07/16 08:34:07;;;;;;;23.70;7.50;;;;;;;18.62;84.64;101201.86;124730;1093;64322;-76
2021/07/16 08:36:34;;;;;;;16.75;5.55;;;;;;;18.74;83.89;101211.70;124773;1093;64239;-74
2021/07/16 08:39:04;;;;;;;18.90;6.67;;;;;;;18.87;83.76;101210.82;124655;1093;64434;-74
2021/07/16 08:41:32;;;;;;;15.43;6.37;;;;;;;18.98;82.13;101211.98;124772;1093;64310;-76
2021/07/16 08:43:59;;;;;;;18.87;7.53;;;;;;;19.08;81.81;101217.70;124838;1093;64884;-78
2021/07/16 08:46:28;;;;;;;20.07;8.63;;;;;;;19.14;81.71;101227.56;124724;1093;64387;-74
2021/07/16 08:48:58;;;;;;;19.77;8.77;;;;;;;19.18;81.96;101235.20;124870;1093;64294;-76
2021/07/16 08:51:26;;;;;;;18.40;7.63;;;;;;;19.11;81.21;101238.77;124786;1093;64360;-76
2021/07/16 08:53:55;;;;;;;22.50;5.80;;;;;;;19.09;81.70;101248.92;124807;1091;64307;-77
2021/07/16 08:56:27;;;;;;;31.70;11.57;;;;;;;19.11;82.24;101254.09;124921;1093;65614;-79
2021/07/16 08:58:54;;;;;;;20.53;7.10;;;;;;;19.11;81.96;101248.71;124732;1093;64268;-81
2021/07/16 09:01:21;;;;;;;19.37;8.93;;;;;;;19.05;81.62;101261.15;124727;1092;64317;-76
2021/07/16 09:03:56;;;;;;;12.80;6.03;;;;;;;19.04;81.47;101250.60;124534;1092;64300;-75
2021/07/16 09:06:48;;;;;;;14.03;5.03;;;;;;;19.12;82.41;101248.47;124926;1092;64304;-77
2021/07/16 09:09:18;;;;;;;14.67;8.03;;;;;;;19.23;81.90;101243.44;124644;1093;64326;-76
2021/07/16 09:11:51;;;;;;;14.67;6.90;;;;;;;19.35;81.32;101245.19;124649;1094;66094;-77
2021/07/16 09:14:31;;;;;;;18.17;7.50;;;;;;;19.37;80.31;101253.05;124677;1092;64770;-77
2021/07/16 09:17:06;;;;;;;15.30;7.23;;;;;;;19.33;80.00;101258.03;124653;1092;64763;-75
2021/07/16 09:19:47;;;;;;;16.17;6.67;;;;;;;19.41;79.99;101254.27;124681;1093;64352;-75
2021/07/16 09:22:23;;;;;;;16.63;6.23;;;;;;;19.48;79.11;101264.96;124725;1093;64419;-75
2021/07/16 09:24:59;;;;;;;17.10;6.00;;;;;;;19.56;79.56;101251.23;124807;1092;64233;-75
2021/07/16 09:27:37;;;;;;;17.90;5.93;;;;;;;19.70;79.22;101251.95;124686;1093;64330;-74
2021/07/16 09:30:21;;;;;;;20.50;6.83;;;;;;;19.73;78.93;101246.95;124672;1093;64325;-76
2021/07/16 09:32:52;;;;;;;25.10;13.70;;;;;;;19.79;79.02;101253.33;124655;1093;64317;-76
2021/07/16 09:35:24;;;;;;;15.23;8.00;;;;;;;19.81;78.48;101247.73;124954;1093;64319;-76
2021/07/16 09:38:06;;;;;;;14.40;6.03;;;;;;;19.93;78.04;101241.38;124729;1092;64217;-75
2021/07/16 09:40:38;;;;;;;14.80;6.90;;;;;;;20.15;76.02;101244.44;124610;1093;64406;-75
2021/07/16 09:43:11;;;;;;;10.80;6.03;;;;;;;20.32;75.62;101239.27;124746;1093;64240;-75
2021/07/16 09:45:40;;;;;;;11.77;6.30;;;;;;;20.50;76.22;101245.67;124553;1093;64285;-76
2021/07/16 09:48:24;;;;;;;19.13;7.50;;;;;;;20.70;75.26;101251.66;124674;1092;64297;-74
2021/07/16 09:51:13;;;;;;;14.43;6.80;;;;;;;20.81;74.11;101246.53;124636;1093;64343;-74
2021/07/16 09:53:54;;;;;;;21.33;7.20;;;;;;;20.92;73.31;101243.86;124654;1092;64288;-74
2021/07/16 09:56:30;;;;;;;18.30;6.60;;;;;;;20.92;72.80;101245.74;124656;1093;64298;-74
2021/07/16 09:59:28;;;;;;;19.15;6.60;;;;;;;20.97;73.32;101241.31;125525;1092;64476;-75
2021/07/16 10:01:55;;;;;;;10.43;5.40;;;;;;;21.11;72.95;101247.31;124648;1093;64841;-74
2021/07/16 10:04:32;;;;;;;14.90;6.33;;;;;;;21.22;72.10;101239.47;124679;1093;64268;-74
2021/07/16 10:07:00;;;;;;;20.40;6.77;;;;;;;21.48;72.16;101241.73;124762;1093;64299;-76
2021/07/16 10:09:28;;;;;;;16.37;6.83;;;;;;;21.75;71.04;101249.38;124709;1093;64294;-76
2021/07/16 10:11:57;;;;;;;20.17;6.90;;;;;;;21.80;69.59;101246.78;124645;1093;64313;-74
2021/07/16 10:14:24;;;;;;;17.97;7.70;;;;;;;21.77;68.75;101239.17;124776;1092;64563;-77
2021/07/16 10:16:53;;;;;;;13.60;5.73;;;;;;;21.87;69.39;101234.00;124832;1093;64912;-75
2021/07/16 10:19:22;;;;;;;17.30;6.67;;;;;;;21.96;69.10;101243.36;124568;1093;64282;-76
2021/07/16 10:21:51;;;;;;;14.70;5.50;;;;;;;22.10;67.95;101248.50;124617;1093;64854;-74
2021/07/16 10:24:26;;;;;;;16.10;5.57;;;;;;;22.10;67.53;101243.94;124647;1093;64434;-77
2021/07/16 10:27:14;;;;;;;15.70;6.33;;;;;;;22.20;67.54;101244.13;124554;1093;64291;-74
2021/07/16 10:29:48;;;;;;;16.97;7.10;;;;;;;22.23;67.64;101248.29;124585;1093;64272;-74
2021/07/16 10:32:50;;;;;;;15.05;8.20;;;;;;;22.28;67.38;101258.38;124683;1093;64359;-74
2021/07/16 10:35:22;;;;;;;13.00;5.93;;;;;;;22.24;66.94;101262.61;124723;1093;64218;-76
2021/07/16 10:37:57;;;;;;;15.93;6.97;;;;;;;22.39;66.66;101257.52;124630;1093;64769;-77
2021/07/16 10:40:36;;;;;;;19.23;7.63;;;;;;;22.42;65.81;101272.42;124671;1093;64355;-75
2021/07/16 10:43:04;;;;;;;12.73;5.37;;;;;;;22.45;65.90;101272.77;124711;1093;64300;-76
2021/07/16 10:45:33;;;;;;;16.13;7.30;;;;;;;22.58;65.94;101263.56;124802;1093;64211;-77
2021/07/16 10:48:21;;;;;;;12.17;7.57;;;;;;;22.66;65.78;101260.47;124733;1093;64363;-74
2021/07/16 10:50:52;;;;;;;14.33;7.50;;;;;;;22.80;64.73;101253.72;124744;1093;64412;-77
2021/07/16 10:53:28;;;;;;;17.90;8.30;;;;;;;23.04;65.65;101261.73;124699;1093;64291;-74
2021/07/16 10:55:55;;;;;;;15.57;6.67;;;;;;;23.00;63.47;101269.50;124770;1093;64311;-80
2021/07/16 10:58:24;;;;;;;12.20;6.60;;;;;;;23.07;65.29;101263.13;124843;1093;64253;-80
2021/07/16 11:00:55;;;;;;;11.43;6.63;;;;;;;23.20;64.62;101279.03;124802;1093;64297;-80
2021/07/16 11:03:46;;;;;;;16.90;7.90;;;;;;;23.08;64.13;101275.57;124798;1093;64371;-80
2021/07/16 11:06:15;;;;;;;17.75;7.20;;;;;;;22.78;64.36;101282.89;124834;1092;64399;-80
2021/07/16 11:08:42;;;;;;;17.77;7.40;;;;;;;22.73;64.90;101282.77;124889;1093;64307;-80
2021/07/16 11:11:21;;;;;;;18.10;7.93;;;;;;;22.58;65.66;101288.71;124870;1092;64218;-79
2021/07/16 11:13:57;;;;;;;17.60;7.20;;;;;;;22.38;65.92;101289.14;124815;1093;64211;-79
2021/07/16 11:16:25;;;;;;;16.03;7.47;;;;;;;22.27;66.24;101290.00;124835;1093;64291;-79